Ajlune, Washington
Current Conditions -  °F | °C
As of 7:55 PM on Saturday 20 Dec 2014 (Local Time) from KCLS Reporting Station
Light Rain Light Rain  
Wind Chill: 55°   Ceiling: 2400
Heat Index: 55°   Visibility: 5mi
Dew Point: 55°   Wind: 7mph
Humidity: 100%   Direction: 220°SW
Pressure: 29.57"   Gusts: 16mph
Location:  46.4493°N, 122.435°W
Report Text: KCLS 210355Z AUTO 22006G14KT 5SM -RA SCT017 BKN024 OVC031 13/13 A2957 RMK AO2
Loading
Personal Weather Stations






























Interactive Weather Map New forecast layout! Learn more

10-Day Weather Forecast

Advertisements
Track Severe Weather on mobile